Summerland Sweets XC 3K

Back to 2019 XC Races

2019 XC Race

2019-09-29, Summerland, 3.2 km
# Name City Age GP CP Time Pace
1 Liam Reid Penticton M10-12 0:13:25 04:11
2 Emily Jell Summerland F13-15 0:14:20 04:28
3 Alistair Martin Summerland M10-12 0:14:35 04:33
4 Payton Mitchell Summerland F10-12 0:14:50 04:38
5 Bree Cutjar Penticton F10-12 0:14:59 04:40
6 Ryelan Mcdermid Summerland M10-12 0:15:21 04:47
7 Dawson Bond Vernon M10-12 4 4 0:17:00 05:18
8 Rupert Haverkamp Summerland M10-12 5 5 0:17:03 05:19
9 Richard Haverkamp Summerland M16-99+ 6 0:17:04 05:20
10 Katie Jell Summerland F10-12 4 0:17:05 05:20
11 Casey Mcdermid Summerland M13-15 7 0:17:07 05:20
12 Anna Farbridge Penticton F10-12 5 4 0:17:24 05:26
13 Kyden Hurst Penticton M10-12 8 6 0:17:34 05:29
14 Cadence Quigley Kelowna F10-12 6 5 0:17:43 05:32
15 Violet Porcellato Penticton F01-09 7 0:17:51 05:34
16 Jessica Wilkie Penticton F01-09 8 0:18:01 05:37
17 Elin Kontkanen Penticton F01-09 9 0:18:25 05:45
18 Mirko Porcellato Penticton M16-99+ 9 0:18:51 05:53
19 Tide Kruiswyk Kelowna M01-09 10 0:19:30 06:05
20 Grace Szabadi West Kelowna F01-09 10 4 0:19:31 06:05
21 Lucas Bradner Summerland M01-09 11 0:19:46 06:10
22 Dallas Bradner Summerland M16-99+ 12 0:19:46 06:10
23 Emerson Mitchell Summerland M01-09 13 0:20:17 06:20
24 Evelyn Martin Summerland F01-09 11 5 0:20:17 06:20
25 Linnea Opp Summerland F16-99+ 12 0:20:18 06:20
26 Madison Truesdell Lake Country F10-12 13 6 0:20:28 06:23
27 Chase Knowlton Summerland M01-09 14 4 0:20:35 06:25
28 Joe Mitchell Summerland M16-99+ 15 4 0:20:36 06:26
29 Lindsey Keen Kaleden F16-99+ 14 0:20:43 06:28
30 Brienna Devlin Penticton F01-09 15 6 0:20:44 06:28
31 Danielle Cutjar Penticton F10-12 16 7 0:20:44 06:28
32 Holly Szabadi West Kelowna F01-09 17 7 0:20:45 06:29
33 Kim Szabadi West Kelowna F16-99+ 18 0:20:47 06:29
34 Parker Kruiswyk Kelowna M01-09 16 5 0:20:47 06:29
35 Della Gartrell West Kelowna F10-12 19 8 0:21:54 06:50
36 Finn Porcellato Penticton M01-09 17 6 0:22:12 06:56
37 Sarah Porcellato Penticton F16-99+ 20 4 0:22:15 06:57
38 Lucas Geller Vernon M10-12 18 7 0:22:28 07:01
39 Taylor Hurst Penticton F01-09 21 8 0:22:40 07:05
40 Milo Mcdermid Summerland M01-09 19 7 0:23:39 07:23
41 Linnaea Mcdermid Summerland F16-99+ 22 5 0:23:39 07:23
42 Shaelyn Truesdell Lake Country F13-15 23 0:23:44 07:25
43 Cole Hurst Penticton M01-09 20 8 0:23:58 07:29
44 Benjamin Wilkie Penticton M01-09 21 9 0:24:00 07:30
45 Melanie Wilkie Penticton F16-99+ 24 6 0:24:04 07:31
46 Ann Hurst Penticton F16-99+ 25 7 0:24:05 07:31
47 Astrid Bradner Summerland F01-09 26 9 0:24:35 07:40
48 Jane Bradner Summerland F16-99+ 27 8 0:24:35 07:40
49 Markus Kontkanen Penticton M10-12 22 8 0:28:25 08:52
50 Amanda Kontkanen Penticton F16-99+ 28 9 0:28:27 08:53
51 Alicia Jell Summerland F01-09 29 10 0:28:32 08:55
52 Claira Mcdermid Summerland F01-09 30 11 0:28:33 08:55
53 Gabe Mcdermid Summerland M16-99+ 23 5 0:28:35 08:55
54 Amelia Sutherland Kelowna F01-09 31 12 0:28:55 09:02
55 Eloise Carriere Penticton F01-09 32 13 0:32:54 10:16
56 Fabien Carriere Penticton M16-99+ 24 6 0:32:54 10:16
57 Sophie Jell Summerland F01-09 33 13 0:32:54 10:16
58 Janine Jell Summerland F16-99+ 34 10 0:32:54 10:16
59 Dyllan Stringer Kelowna F01-09 35 15 0:41:00 12:48
Missing or Incorrect Results